Wetterdaten: Woche 25.04.16 - 01.05.16 (KW17)
Datum Zeit Temp. A. Feuchte A. Luftdruck Regen Wind Richtung Taupunkt Windchill Windben
25.04.2016 00:00 5,2 C 69 % 1008,8 hPa 0,0 l/m 8,2 km/h N 0,0 C 3,7 C 20,9 km/h
25.04.2016 01:00 4,8 C 69 % 1008,8 hPa 0,0 l/m 8,8 km/h N -0,3 C 2,8 C 19,7 km/h
25.04.2016 02:00 4,5 C 71 % 1008,7 hPa 0,0 l/m 10,1 km/h N -0,2 C 1,5 C 23,3 km/h
25.04.2016 03:00 4,1 C 75 % 1008,5 hPa 0,0 l/m 11,6 km/h N 0,0 C -0,0 C 25,3 km/h
25.04.2016 04:00 4,0 C 75 % 1008,4 hPa 0,0 l/m 10,0 km/h N -0,1 C 1,0 C 24,5 km/h
25.04.2016 05:00 3,9 C 74 % 1008,2 hPa 0,0 l/m 9,9 km/h N -0,4 C 0,9 C 26,5 km/h
25.04.2016 06:00 3,7 C 75 % 1008,4 hPa 0,0 l/m 11,6 km/h N -0,3 C -0,5 C 26,1 km/h
25.04.2016 07:00 3,9 C 72 % 1008,9 hPa 0,0 l/m 12,6 km/h N -0,6 C -0,8 C 27,0 km/h
25.04.2016 08:00 4,4 C 71 % 1009,3 hPa 0,0 l/m 12,1 km/h N -0,4 C 0,0 C 27,4 km/h
25.04.2016 09:00 5,3 C 67 % 1009,2 hPa 0,0 l/m 12,8 km/h N -0,3 C 0,7 C 29,0 km/h
25.04.2016 10:00 6,5 C 61 % 1009,3 hPa 0,0 l/m 11,3 km/h N -0,5 C 2,9 C 27,0 km/h
25.04.2016 11:00 6,7 C 58 % 1009,2 hPa 0,0 l/m 10,8 km/h N -0,9 C 3,4 C 24,5 km/h
25.04.2016 12:00 7,8 C 53 % 1008,8 hPa 0,0 l/m 11,8 km/h N -1,2 C 4,1 C 29,0 km/h
25.04.2016 13:00 8,3 C 50 % 1008,5 hPa 0,0 l/m 11,4 km/h N -1,5 C 4,9 C 25,7 km/h
25.04.2016 14:00 8,5 C 50 % 1008,6 hPa 0,0 l/m 9,2 km/h N -1,4 C 6,4 C 24,5 km/h
25.04.2016 15:00 7,2 C 62 % 1009,1 hPa 0,0 l/m 10,1 km/h N 0,3 C 4,5 C 25,8 km/h
25.04.2016 16:00 7,4 C 62 % 1008,9 hPa 0,0 l/m 6,1 km/h N 0,5 C 6,8 C 20,9 km/h
25.04.2016 17:00 6,0 C 69 % 1009,2 hPa 0,3 l/m 9,0 km/h N 0,7 C 3,9 C 24,1 km/h
25.04.2016 18:00 5,7 C 71 % 1009,3 hPa 0,0 l/m 6,5 km/h N 0,7 C 5,4 C 17,7 km/h
25.04.2016 19:00 4,6 C 76 % 1009,7 hPa 0,0 l/m 7,4 km/h N 0,7 C 3,5 C 21,3 km/h
25.04.2016 20:00 3,8 C 78 % 1010,0 hPa 0,0 l/m 5,8 km/h N 0,2 C 3,6 C 18,5 km/h
25.04.2016 21:00 3,8 C 76 % 1010,2 hPa 0,0 l/m 7,2 km/h N -0,0 C 3,1 C 20,5 km/h
25.04.2016 22:00 4,1 C 73 % 1010,2 hPa 0,0 l/m 7,4 km/h N -0,4 C 3,1 C 22,1 km/h
25.04.2016 23:00 3,9 C 72 % 1010,0 hPa 0,0 l/m 8,2 km/h N -0,7 C 2,3 C 20,9 km/h
26.04.2016 00:00 3,9 C 72 % 1009,7 hPa 0,0 l/m 5,1 km/h N -0,8 C 3,7 C 17,7 km/h
26.04.2016 01:00 3,2 C 71 % 1009,4 hPa 0,0 l/m 0,1 km/h N -1,6 C 3,2 C 2,0 km/h
26.04.2016 02:00 1,6 C 76 % 1009,1 hPa 0,0 l/m 0,0 km/h N -2,2 C 1,6 C 0,0 km/h
26.04.2016 03:00 0,5 C 79 % 1008,9 hPa 0,0 l/m 0,0 km/h N -2,7 C 0,5 C 0,8 km/h
26.04.2016 04:00 -0,4 C 81 % 1008,7 hPa 0,0 l/m 0,0 km/h N -3,4 C -0,4 C 0,4 km/h
26.04.2016 05:00 -0,8 C 82 % 1008,3 hPa 0,0 l/m 0,0 km/h N -3,4 C -0,8 C 0,0 km/h
26.04.2016 06:00 -0,5 C 83 % 1007,9 hPa 0,0 l/m 0,0 km/h N -3,0 C -0,5 C 0,0 km/h
26.04.2016 07:00 0,8 C 83 % 1007,4 hPa 0,0 l/m 0,1 km/h N -1,8 C 0,8 C 1,2 km/h
26.04.2016 08:00 4,7 C 75 % 1006,7 hPa 0,0 l/m 2,6 km/h N 0,5 C 4,7 C 11,6 km/h
26.04.2016 09:00 8,2 C 55 % 1006,3 hPa 0,0 l/m 2,7 km/h N -0,4 C 8,2 C 11,3 km/h
26.04.2016 10:00 11,3 C 43 % 1005,8 hPa 0,0 l/m 4,3 km/h N -1,0 C 11,3 C 13,7 km/h
26.04.2016 11:00 14,7 C 36 % 1005,0 hPa 0,0 l/m 3,2 km/h N -0,4 C 14,7 C 10,5 km/h
26.04.2016 12:00 16,3 C 33 % 1004,2 hPa 0,0 l/m 2,2 km/h N 0,0 C 16,3 C 10,1 km/h
26.04.2016 13:00 17,4 C 32 % 1003,7 hPa 0,0 l/m 2,5 km/h N 0,6 C 17,4 C 10,5 km/h
26.04.2016 14:00 17,3 C 36 % 1003,1 hPa 0,0 l/m 1,9 km/h N 1,9 C 17,3 C 10,4 km/h
26.04.2016 15:00 17,2 C 35 % 1002,7 hPa 0,0 l/m 3,3 km/h N 1,4 C 17,2 C 11,7 km/h
26.04.2016 16:00 16,6 C 36 % 1002,2 hPa 0,0 l/m 3,5 km/h N 1,5 C 16,6 C 14,9 km/h
26.04.2016 17:00 16,3 C 36 % 1001,8 hPa 0,0 l/m 5,3 km/h N 1,3 C 16,3 C 17,7 km/h
26.04.2016 18:00 15,7 C 37 % 1001,5 hPa 0,0 l/m 5,0 km/h N 1,0 C 15,7 C 17,3 km/h
26.04.2016 19:00 14,4 C 41 % 1001,7 hPa 0,0 l/m 4,7 km/h N 1,3 C 14,4 C 16,5 km/h
26.04.2016 20:00 12,7 C 49 % 1003,2 hPa 0,0 l/m 7,2 km/h N 2,3 C 11,8 C 24,1 km/h
26.04.2016 21:00 10,3 C 61 % 1004,5 hPa 0,0 l/m 8,2 km/h N 2,9 C 9,0 C 21,7 km/h
26.04.2016 22:00 8,5 C 66 % 1005,2 hPa 0,0 l/m 5,2 km/h N 2,4 C 8,3 C 13,3 km/h
26.04.2016 23:00 7,9 C 67 % 1005,2 hPa 0,0 l/m 3,7 km/h N 2,1 C 7,9 C 13,3 km/h
27.04.2016 00:00 7,7 C 69 % 1005,4 hPa 0,0 l/m 2,2 km/h N 2,3 C 7,7 C 7,3 km/h
27.04.2016 01:00 7,2 C 74 % 1005,1 hPa 0,0 l/m 0,0 km/h N 2,8 C 7,2 C 0,0 km/h
27.04.2016 02:00 6,8 C 79 % 1004,8 hPa 0,5 l/m 0,4 km/h N 3,4 C 6,8 C 3,6 km/h
27.04.2016 03:00 6,5 C 81 % 1004,5 hPa 0,0 l/m 0,6 km/h N 3,5 C 6,5 C 6,0 km/h
27.04.2016 04:00 6,2 C 82 % 1004,4 hPa 0,0 l/m 0,1 km/h N 3,4 C 6,2 C 2,0 km/h
27.04.2016 05:00 6,2 C 83 % 1005,2 hPa 2,9 l/m 0,9 km/h N 3,5 C 6,2 C 4,0 km/h
27.04.2016 06:00 5,4 C 83 % 1006,1 hPa 1,0 l/m 2,3 km/h N 2,7 C 5,4 C 10,9 km/h
27.04.2016 07:00 4,3 C 83 % 1006,9 hPa 0,5 l/m 6,5 km/h N 1,7 C 3,5 C 17,7 km/h
27.04.2016 08:00 4,6 C 83 % 1007,4 hPa 0,3 l/m 7,5 km/h N 2,0 C 3,7 C 18,9 km/h
27.04.2016 09:00 5,0 C 83 % 1007,9 hPa 0,0 l/m 9,1 km/h N 2,3 C 2,7 C 21,7 km/h
27.04.2016 10:00 5,5 C 79 % 1008,2 hPa 0,0 l/m 5,4 km/h N 2,1 C 5,5 C 17,3 km/h
27.04.2016 11:00 5,4 C 78 % 1008,8 hPa 0,0 l/m 8,5 km/h N 1,8 C 3,6 C 20,5 km/h
27.04.2016 12:00 5,5 C 75 % 1009,7 hPa 0,0 l/m 7,4 km/h N 1,5 C 4,5 C 21,3 km/h
27.04.2016 13:00 5,5 C 73 % 1010,3 hPa 0,0 l/m 7,3 km/h N 1,1 C 4,4 C 20,5 km/h
27.04.2016 14:00 4,8 C 77 % 1011,0 hPa 0,0 l/m 8,5 km/h N 1,1 C 3,1 C 20,5 km/h
27.04.2016 15:00 4,9 C 74 % 1011,3 hPa 0,0 l/m 8,4 km/h N 0,6 C 3,3 C 21,3 km/h
27.04.2016 16:00 5,3 C 69 % 1011,9 hPa 0,0 l/m 9,1 km/h N 0,0 C 3,0 C 28,6 km/h
27.04.2016 17:00 5,4 C 70 % 1012,3 hPa 0,0 l/m 6,5 km/h N 0,3 C 4,9 C 18,5 km/h
27.04.2016 18:00 5,6 C 68 % 1012,3 hPa 0,0 l/m 6,7 km/h N 0,2 C 5,3 C 18,5 km/h
27.04.2016 19:00 5,6 C 66 % 1012,8 hPa 0,0 l/m 5,1 km/h N -0,3 C 5,4 C 16,9 km/h
27.04.2016 20:00 5,4 C 65 % 1012,9 hPa 0,3 l/m 5,2 km/h N -0,6 C 5,1 C 16,9 km/h
27.04.2016 21:00 5,0 C 66 % 1013,7 hPa 0,0 l/m 0,7 km/h N -0,7 C 5,0 C 4,8 km/h
27.04.2016 22:00 4,0 C 70 % 1013,9 hPa 0,0 l/m 0,3 km/h N -1,0 C 4,0 C 4,8 km/h
27.04.2016 23:00 3,9 C 69 % 1014,3 hPa 0,0 l/m 0,5 km/h N -1,2 C 3,9 C 6,0 km/h
28.04.2016 00:00 3,7 C 69 % 1014,9 hPa 0,0 l/m 0,2 km/h N -1,5 C 3,7 C 10,1 km/h
28.04.2016 01:00 3,8 C 68 % 1015,2 hPa 0,0 l/m 2,3 km/h N -1,7 C 3,8 C 12,1 km/h
28.04.2016 02:00 5,1 C 62 % 1014,9 hPa 0,0 l/m 5,8 km/h N -1,6 C 4,4 C 17,3 km/h
28.04.2016 03:00 4,0 C 66 % 1015,3 hPa 0,0 l/m 0,6 km/h N -1,8 C 4,0 C 4,4 km/h
28.04.2016 04:00 2,5 C 71 % 1015,8 hPa 0,0 l/m 0,1 km/h N -2,3 C 2,5 C 1,6 km/h
28.04.2016 05:00 0,7 C 76 % 1016,1 hPa 0,0 l/m 0,1 km/h N -3,0 C 0,7 C 2,0 km/h
28.04.2016 06:00 -0,0 C 80 % 1016,4 hPa 0,0 l/m 0,0 km/h N -3,1 C -0,0 C 0,4 km/h
28.04.2016 07:00 1,3 C 82 % 1016,6 hPa 0,0 l/m 0,0 km/h N -1,5 C 1,3 C 1,2 km/h
28.04.2016 08:00 4,6 C 79 % 1016,9 hPa 0,0 l/m 0,0 km/h N 1,2 C 4,6 C 1,6 km/h
28.04.2016 09:00 8,4 C 64 % 1016,8 hPa 0,0 l/m 0,9 km/h N 1,9 C 8,4 C 4,8 km/h
28.04.2016 10:00 9,9 C 51 % 1016,9 hPa 0,0 l/m 3,5 km/h N 0,3 C 9,9 C 11,3 km/h
28.04.2016 11:00 10,3 C 48 % 1017,1 hPa 0,0 l/m 5,4 km/h N -0,1 C 10,1 C 18,1 km/h
28.04.2016 12:00 10,1 C 51 % 1017,5 hPa 0,0 l/m 7,5 km/h N 0,5 C 9,1 C 19,7 km/h
28.04.2016 13:00 9,3 C 57 % 1017,5 hPa 0,0 l/m 7,8 km/h N 1,1 C 8,3 C 20,9 km/h
28.04.2016 14:00 9,4 C 58 % 1017,3 hPa 0,0 l/m 7,0 km/h N 1,4 C 8,8 C 21,7 km/h
28.04.2016 15:00 9,9 C 55 % 1016,8 hPa 0,0 l/m 5,4 km/h N 1,2 C 9,9 C 17,7 km/h
28.04.2016 16:00 10,0 C 55 % 1016,5 hPa 0,0 l/m 4,5 km/h N 1,3 C 10,0 C 12,5 km/h
28.04.2016 17:00 9,6 C 55 % 1016,5 hPa 0,0 l/m 4,6 km/h N 1,0 C 9,6 C 15,3 km/h
28.04.2016 18:00 9,0 C 56 % 1016,7 hPa 0,0 l/m 3,5 km/h N 0,8 C 9,0 C 11,3 km/h
28.04.2016 19:00 8,4 C 61 % 1017,0 hPa 0,0 l/m 2,4 km/h N 1,3 C 8,4 C 11,7 km/h
28.04.2016 20:00 7,0 C 67 % 1017,4 hPa 0,0 l/m 0,3 km/h N 1,3 C 7,0 C 3,2 km/h
28.04.2016 21:00 4,9 C 72 % 1018,0 hPa 0,0 l/m 0,0 km/h N 0,2 C 4,9 C 0,8 km/h
28.04.2016 22:00 3,0 C 77 % 1018,3 hPa 0,0 l/m 0,0 km/h N -0,6 C 3,0 C 0,0 km/h
28.04.2016 23:00 1,7 C 80 % 1018,8 hPa 0,0 l/m 0,0 km/h N -1,4 C 1,7 C 0,8 km/h
29.04.2016 00:00 0,8 C 82 % 1019,1 hPa 0,0 l/m 0,1 km/h N -2,0 C 0,8 C 1,2 km/h
29.04.2016 01:00 0,2 C 83 % 1019,2 hPa 0,0 l/m 0,0 km/h N -2,4 C 0,2 C 0,4 km/h
29.04.2016 02:00 -0,2 C 85 % 1019,3 hPa 0,0 l/m 0,0 km/h N -2,5 C -0,2 C 0,4 km/h
29.04.2016 03:00 -0,7 C 84 % 1019,6 hPa 0,0 l/m 0,0 km/h N -3,1 C -0,7 C 0,4 km/h
29.04.2016 04:00 -1,2 C 84 % 1019,8 hPa 0,0 l/m 0,2 km/h N -3,6 C -1,2 C 0,8 km/h
29.04.2016 05:00 -1,5 C 84 % 1020,0 hPa 0,0 l/m 0,0 km/h N -3,9 C -1,5 C 0,0 km/h
29.04.2016 06:00 -1,2 C 83 % 1020,5 hPa 0,0 l/m 0,0 km/h N -3,7 C -1,2 C 0,8 km/h
29.04.2016 07:00 0,7 C 83 % 1021,0 hPa 0,0 l/m 0,0 km/h N -1,8 C 0,7 C 0,4 km/h
29.04.2016 08:00 3,8 C 82 % 1021,3 hPa 0,0 l/m 0,0 km/h N 1,0 C 3,8 C 2,4 km/h
29.04.2016 09:00 7,6 C 81 % 1021,3 hPa 0,0 l/m 0,2 km/h N 4,5 C 7,6 C 4,8 km/h
29.04.2016 10:00 11,2 C 66 % 1021,1 hPa 0,0 l/m 0,6 km/h N 5,1 C 11,2 C 6,0 km/h
29.04.2016 11:00 13,4 C 55 % 1020,9 hPa 0,0 l/m 0,9 km/h N 4,4 C 13,4 C 6,8 km/h
29.04.2016 12:00 14,6 C 45 % 1020,6 hPa 0,0 l/m 1,3 km/h N 2,7 C 14,6 C 8,4 km/h
29.04.2016 13:00 15,1 C 44 % 1020,2 hPa 0,0 l/m 1,7 km/h N 3,0 C 15,1 C 8,8 km/h
29.04.2016 14:00 15,5 C 42 % 1019,7 hPa 0,0 l/m 2,7 km/h N 2,6 C 15,5 C 9,7 km/h
29.04.2016 15:00 14,7 C 42 % 1019,4 hPa 0,0 l/m 1,6 km/h N 1,8 C 14,7 C 8,0 km/h
29.04.2016 16:00 14,6 C 42 % 1019,2 hPa 0,0 l/m 1,0 km/h N 1,6 C 14,6 C 8,1 km/h
29.04.2016 17:00 14,3 C 42 % 1018,9 hPa 0,0 l/m 0,8 km/h N 1,5 C 14,3 C 8,0 km/h
29.04.2016 18:00 14,0 C 43 % 1018,7 hPa 0,0 l/m 0,6 km/h N 1,5 C 14,0 C 5,2 km/h
29.04.2016 19:00 13,6 C 44 % 1018,7 hPa 0,0 l/m 0,2 km/h N 1,6 C 13,6 C 3,6 km/h
29.04.2016 20:00 11,6 C 49 % 1019,0 hPa 0,0 l/m 0,0 km/h N 1,3 C 11,6 C 0,0 km/h
29.04.2016 21:00 8,4 C 62 % 1019,3 hPa 0,0 l/m 0,0 km/h N 1,5 C 8,4 C 0,4 km/h
29.04.2016 22:00 6,3 C 69 % 1019,2 hPa 0,0 l/m 0,0 km/h N 1,0 C 6,3 C 0,4 km/h
29.04.2016 23:00 5,1 C 73 % 1019,1 hPa 0,0 l/m 0,2 km/h N 0,7 C 5,1 C 0,8 km/h
30.04.2016 00:00 4,7 C 75 % 1019,0 hPa 0,0 l/m 0,1 km/h N 0,5 C 4,7 C 1,2 km/h
30.04.2016 01:00 3,6 C 76 % 1018,8 hPa 0,0 l/m 0,0 km/h N -0,1 C 3,6 C 0,0 km/h
30.04.2016 02:00 2,5 C 79 % 1018,7 hPa 0,0 l/m 0,0 km/h N -0,8 C 2,5 C 0,0 km/h
30.04.2016 03:00 1,8 C 81 % 1018,7 hPa 0,0 l/m 0,0 km/h N -1,2 C 1,8 C 0,0 km/h
30.04.2016 04:00 1,3 C 82 % 1018,6 hPa 0,0 l/m 0,0 km/h N -1,4 C 1,3 C 0,0 km/h
30.04.2016 05:00 1,3 C 83 % 1018,7 hPa 0,0 l/m 0,0 km/h N -1,3 C 1,3 C 0,0 km/h
30.04.2016 06:00 1,4 C 83 % 1018,8 hPa 0,0 l/m 0,0 km/h N -1,1 C 1,4 C 0,4 km/h
30.04.2016 07:00 2,9 C 83 % 1019,0 hPa 0,0 l/m 0,0 km/h N 0,3 C 2,9 C 0,0 km/h
30.04.2016 08:00 6,9 C 82 % 1019,1 hPa 0,0 l/m 0,2 km/h N 3,9 C 6,9 C 4,8 km/h
30.04.2016 09:00 11,3 C 64 % 1019,0 hPa 0,0 l/m 0,3 km/h N 4,7 C 11,3 C 4,0 km/h
30.04.2016 10:00 13,7 C 59 % 1018,8 hPa 0,0 l/m 0,9 km/h N 5,8 C 13,7 C 7,2 km/h
30.04.2016 11:00 16,1 C 55 % 1018,4 hPa 0,0 l/m 0,6 km/h N 6,9 C 16,1 C 7,2 km/h
30.04.2016 12:00 18,7 C 46 % 1017,7 hPa 0,0 l/m 1,6 km/h N 6,9 C 18,7 C 8,9 km/h
30.04.2016 13:00 20,0 C 42 % 1017,1 hPa 0,0 l/m 2,0 km/h N 6,6 C 20,0 C 10,1 km/h
30.04.2016 14:00 20,5 C 38 % 1016,8 hPa 0,0 l/m 2,2 km/h N 5,8 C 20,5 C 12,1 km/h
30.04.2016 15:00 19,6 C 40 % 1016,5 hPa 0,0 l/m 3,1 km/h N 5,5 C 19,6 C 14,5 km/h
30.04.2016 16:00 18,6 C 38 % 1016,1 hPa 0,0 l/m 2,7 km/h N 4,0 C 18,6 C 12,5 km/h
30.04.2016 17:00 18,0 C 38 % 1015,8 hPa 0,0 l/m 2,8 km/h N 3,5 C 18,0 C 14,1 km/h
30.04.2016 18:00 17,6 C 39 % 1015,5 hPa 0,0 l/m 2,5 km/h N 3,5 C 17,6 C 8,9 km/h
30.04.2016 19:00 16,9 C 42 % 1015,5 hPa 0,0 l/m 1,1 km/h N 3,7 C 16,9 C 8,0 km/h
30.04.2016 20:00 15,1 C 47 % 1015,5 hPa 0,0 l/m 0,6 km/h N 3,7 C 15,1 C 5,2 km/h
30.04.2016 21:00 13,6 C 53 % 1015,6 hPa 0,0 l/m 0,1 km/h N 4,0 C 13,6 C 2,0 km/h
30.04.2016 22:00 11,1 C 60 % 1015,5 hPa 0,0 l/m 0,0 km/h N 3,7 C 11,1 C 0,0 km/h
30.04.2016 23:00 8,8 C 69 % 1015,4 hPa 0,0 l/m 0,0 km/h N 3,3 C 8,8 C 0,0 km/h
01.05.2016 00:00 7,3 C 75 % 1015,3 hPa 0,0 l/m 0,0 km/h N 3,1 C 7,3 C 0,0 km/h
01.05.2016 01:00 6,8 C 78 % 1015,2 hPa 0,0 l/m 0,0 km/h N 3,2 C 6,8 C 0,0 km/h
01.05.2016 02:00 6,1 C 80 % 1015,4 hPa 0,0 l/m 0,0 km/h N 2,9 C 6,1 C 0,4 km/h
01.05.2016 03:00 5,4 C 81 % 1015,7 hPa 0,0 l/m 0,0 km/h N 2,3 C 5,4 C 0,0 km/h
01.05.2016 04:00 4,9 C 82 % 1015,7 hPa 0,0 l/m 0,0 km/h N 2,1 C 4,9 C 0,0 km/h
01.05.2016 05:00 4,8 C 83 % 1015,7 hPa 0,0 l/m 0,0 km/h N 2,1 C 4,8 C 0,0 km/h
01.05.2016 06:00 5,2 C 83 % 1016,0 hPa 0,0 l/m 0,1 km/h N 2,5 C 5,2 C 1,6 km/h
01.05.2016 07:00 7,3 C 82 % 1016,0 hPa 0,0 l/m 0,0 km/h N 4,4 C 7,3 C 0,0 km/h
01.05.2016 08:00 8,4 C 82 % 1016,4 hPa 0,0 l/m 0,1 km/h N 5,6 C 8,4 C 2,0 km/h
01.05.2016 09:00 9,6 C 82 % 1016,8 hPa 0,0 l/m 0,0 km/h N 6,7 C 9,6 C 1,2 km/h
01.05.2016 10:00 11,1 C 79 % 1017,2 hPa 0,0 l/m 0,1 km/h N 7,5 C 11,1 C 2,0 km/h
01.05.2016 11:00 12,8 C 75 % 1017,2 hPa 0,0 l/m 0,1 km/h N 8,4 C 12,8 C 2,8 km/h
01.05.2016 12:00 14,1 C 72 % 1016,8 hPa 0,0 l/m 0,3 km/h N 9,1 C 14,1 C 4,8 km/h
01.05.2016 13:00 15,4 C 67 % 1016,6 hPa 0,0 l/m 0,7 km/h N 9,4 C 15,4 C 6,9 km/h
01.05.2016 14:00 15,9 C 65 % 1016,4 hPa 0,0 l/m 0,7 km/h N 9,3 C 15,9 C 6,4 km/h
01.05.2016 15:00 15,8 C 65 % 1016,1 hPa 0,0 l/m 0,5 km/h N 9,1 C 15,8 C 6,0 km/h
01.05.2016 16:00 16,6 C 62 % 1015,8 hPa 0,0 l/m 0,8 km/h N 9,3 C 16,6 C 7,6 km/h
01.05.2016 17:00 16,8 C 59 % 1015,7 hPa 0,0 l/m 1,5 km/h N 8,8 C 16,8 C 11,7 km/h
01.05.2016 18:00 16,8 C 58 % 1015,6 hPa 0,0 l/m 1,0 km/h N 8,4 C 16,8 C 7,6 km/h
01.05.2016 19:00 16,5 C 59 % 1015,8 hPa 0,0 l/m 1,3 km/h N 8,4 C 16,5 C 8,4 km/h
01.05.2016 20:00 16,0 C 60 % 1016,3 hPa 0,0 l/m 4,8 km/h N 8,1 C 16,0 C 17,7 km/h
01.05.2016 21:00 15,4 C 62 % 1016,5 hPa 0,0 l/m 6,2 km/h N 8,2 C 15,3 C 19,3 km/h
01.05.2016 22:00 15,1 C 62 % 1016,5 hPa 0,0 l/m 7,1 km/h N 7,7 C 14,5 C 19,3 km/h
01.05.2016 23:00 14,6 C 63 % 1016,7 hPa 0,0 l/m 4,7 km/h N 7,6 C 14,5 C 16,1 km/h
Min-Datum _ 29.04.16 26.04.16 26.04.16 - 26.04.16 - 29.04.16 29.04.16 26.04.16
_ Min-Zeit 05:30 13:15 19:00 - 01:15 - 05:45 05:30 01:15
Minimum _ -1,6 C 31 % 1001,3 hPa - 0,0 km/h - -4,0 C -1,6 C 0,0 km/h
Max-Datum _ 30.04.16 29.04.16 29.04.16 27.04.16 25.04.16 - 01.05.16 30.04.16 25.04.16
_ Max-Zeit 14:45 02:00 08:15 05:30 09:00 - 16:00 14:45 17:15
Maximum _ 20,6 C 89 % 1021,3 hPa 2,9 l/m 14,6 km/h
N
- 10,0 C 20,6 C 33,8 km/h
N
Durchschnitt _ 8,0 C 66 % 1013,4 hPa #5,7 l/m 3,2 km/h N 1,5 C 7,5 C 10,2 km/h